sensor_id;sensor_type;location;lat;lon;timestamp;P1;durP1;ratioP1;P2;durP2;ratioP2
74535;SDS011;63013;51.104;-115.370;2023-05-10T00:01:06;6.90;;;3.00;;
74535;SDS011;63013;51.104;-115.370;2023-05-10T00:03:33;6.20;;;2.80;;
74535;SDS011;63013;51.104;-115.370;2023-05-10T00:06:00;5.90;;;2.70;;
74535;SDS011;63013;51.104;-115.370;2023-05-10T00:08:27;7.00;;;3.10;;
74535;SDS011;63013;51.104;-115.370;2023-05-10T00:10:54;6.00;;;2.70;;
74535;SDS011;63013;51.104;-115.370;2023-05-10T00:13:22;8.30;;;2.80;;
74535;SDS011;63013;51.104;-115.370;2023-05-10T00:15:48;9.60;;;2.90;;
74535;SDS011;63013;51.104;-115.370;2023-05-10T00:18:16;7.10;;;2.90;;
74535;SDS011;63013;51.104;-115.370;2023-05-10T00:20:43;5.90;;;2.90;;
74535;SDS011;63013;51.104;-115.370;2023-05-10T00:23:12;8.20;;;3.30;;
74535;SDS011;63013;51.104;-115.370;2023-05-10T00:25:39;7.10;;;3.00;;
74535;SDS011;63013;51.104;-115.370;2023-05-10T00:28:06;12.00;;;3.00;;
74535;SDS011;63013;51.104;-115.370;2023-05-10T00:30:33;9.40;;;4.90;;
74535;SDS011;63013;51.104;-115.370;2023-05-10T00:33:00;30.80;;;19.40;;
74535;SDS011;63013;51.104;-115.370;2023-05-10T00:35:27;100.50;;;61.90;;
74535;SDS011;63013;51.104;-115.370;2023-05-10T00:37:54;312.20;;;177.10;;
74535;SDS011;63013;51.104;-115.370;2023-05-10T00:40:22;347.60;;;211.00;;
74535;SDS011;63013;51.104;-115.370;2023-05-10T00:42:49;327.20;;;201.40;;
74535;SDS011;63013;51.104;-115.370;2023-05-10T00:45:16;304.30;;;191.10;;
74535;SDS011;63013;51.104;-115.370;2023-05-10T00:47:43;322.00;;;200.20;;
74535;SDS011;63013;51.104;-115.370;2023-05-10T00:50:11;319.60;;;198.40;;
74535;SDS011;63013;51.104;-115.370;2023-05-10T00:52:38;331.00;;;205.20;;
74535;SDS011;63013;51.104;-115.370;2023-05-10T00:55:06;321.90;;;202.70;;
74535;SDS011;63013;51.104;-115.370;2023-05-10T00:57:33;320.70;;;197.20;;
74535;SDS011;63013;51.104;-115.370;2023-05-10T01:00:02;306.20;;;194.30;;
74535;SDS011;63013;51.104;-115.370;2023-05-10T01:02:29;300.00;;;186.10;;
74535;SDS011;63013;51.104;-115.370;2023-05-10T01:04:56;286.10;;;173.70;;
74535;SDS011;63013;51.104;-115.370;2023-05-10T01:07:24;284.20;;;173.70;;
74535;SDS011;63013;51.104;-115.370;2023-05-10T01:09:51;269.90;;;164.20;;
74535;SDS011;63013;51.104;-115.370;2023-05-10T01:12:18;267.00;;;159.30;;
74535;SDS011;63013;51.104;-115.370;2023-05-10T01:14:46;265.70;;;153.60;;
74535;SDS011;63013;51.104;-115.370;2023-05-10T01:17:13;257.60;;;151.10;;
74535;SDS011;63013;51.104;-115.370;2023-05-10T01:19:42;245.20;;;145.40;;
74535;SDS011;63013;51.104;-115.370;2023-05-10T01:25:29;232.10;;;137.50;;
74535;SDS011;63013;51.104;-115.370;2023-05-10T01:32:12;212.30;;;128.00;;
74535;SDS011;63013;51.104;-115.370;2023-05-10T01:35:06;213.90;;;123.70;;
74535;SDS011;63013;51.104;-115.370;2023-05-10T01:37:44;210.10;;;123.10;;
74535;SDS011;63013;51.104;-115.370;2023-05-10T01:40:26;217.80;;;126.00;;
74535;SDS011;63013;51.104;-115.370;2023-05-10T01:43:01;214.20;;;128.00;;
74535;SDS011;63013;51.104;-115.370;2023-05-10T01:48:19;218.50;;;127.20;;
74535;SDS011;63013;51.104;-115.370;2023-05-10T01:50:48;219.50;;;128.50;;
74535;SDS011;63013;51.104;-115.370;2023-05-10T01:53:18;218.80;;;125.60;;
74535;SDS011;63013;51.104;-115.370;2023-05-10T01:55:50;211.70;;;123.10;;
74535;SDS011;63013;51.104;-115.370;2023-05-10T01:58:29;207.70;;;119.20;;
74535;SDS011;63013;51.104;-115.370;2023-05-10T02:01:03;201.00;;;118.80;;
74535;SDS011;63013;51.104;-115.370;2023-05-10T02:03:31;198.30;;;115.80;;
74535;SDS011;63013;51.104;-115.370;2023-05-10T02:06:00;197.90;;;116.40;;
74535;SDS011;63013;51.104;-115.370;2023-05-10T02:08:28;196.00;;;115.30;;
74535;SDS011;63013;51.104;-115.370;2023-05-10T02:10:58;187.90;;;111.40;;
74535;SDS011;63013;51.104;-115.370;2023-05-10T02:13:27;191.10;;;111.10;;
74535;SDS011;63013;51.104;-115.370;2023-05-10T02:15:58;190.20;;;110.00;;
74535;SDS011;63013;51.104;-115.370;2023-05-10T02:18:27;180.40;;;104.70;;
74535;SDS011;63013;51.104;-115.370;2023-05-10T02:20:54;177.10;;;106.60;;
74535;SDS011;63013;51.104;-115.370;2023-05-10T02:23:23;181.20;;;104.20;;
74535;SDS011;63013;51.104;-115.370;2023-05-10T02:25:54;177.90;;;103.60;;
74535;SDS011;63013;51.104;-115.370;2023-05-10T02:28:23;170.70;;;100.40;;
74535;SDS011;63013;51.104;-115.370;2023-05-10T02:30:53;167.90;;;98.40;;
74535;SDS011;63013;51.104;-115.370;2023-05-10T02:33:21;163.90;;;97.40;;
74535;SDS011;63013;51.104;-115.370;2023-05-10T02:35:50;163.60;;;95.90;;
74535;SDS011;63013;51.104;-115.370;2023-05-10T02:38:20;165.30;;;95.50;;
74535;SDS011;63013;51.104;-115.370;2023-05-10T02:40:49;162.00;;;95.50;;
74535;SDS011;63013;51.104;-115.370;2023-05-10T02:43:17;151.00;;;89.30;;
74535;SDS011;63013;51.104;-115.370;2023-05-10T02:45:47;150.30;;;87.90;;
74535;SDS011;63013;51.104;-115.370;2023-05-10T02:48:15;141.30;;;81.70;;
74535;SDS011;63013;51.104;-115.370;2023-05-10T02:50:44;138.80;;;78.20;;
74535;SDS011;63013;51.104;-115.370;2023-05-10T02:53:28;129.80;;;74.60;;
74535;SDS011;63013;51.104;-115.370;2023-05-10T02:56:01;126.90;;;73.40;;
74535;SDS011;63013;51.104;-115.370;2023-05-10T02:58:40;121.00;;;70.50;;
74535;SDS011;63013;51.104;-115.370;2023-05-10T03:01:08;126.20;;;70.50;;
74535;SDS011;63013;51.104;-115.370;2023-05-10T03:03:35;112.10;;;65.00;;
74535;SDS011;63013;51.104;-115.370;2023-05-10T03:06:02;110.50;;;63.60;;
74535;SDS011;63013;51.104;-115.370;2023-05-10T03:08:29;109.20;;;64.20;;
74535;SDS011;63013;51.104;-115.370;2023-05-10T03:17:00;103.00;;;60.20;;
74535;SDS011;63013;51.104;-115.370;2023-05-10T03:19:40;95.60;;;54.30;;
74535;SDS011;63013;51.104;-115.370;2023-05-10T03:22:10;97.00;;;56.70;;
74535;SDS011;63013;51.104;-115.370;2023-05-10T03:24:43;97.60;;;55.80;;
74535;SDS011;63013;51.104;-115.370;2023-05-10T03:27:14;105.60;;;57.90;;
74535;SDS011;63013;51.104;-115.370;2023-05-10T03:29:43;101.50;;;59.30;;
74535;SDS011;63013;51.104;-115.370;2023-05-10T03:32:12;96.20;;;55.90;;
74535;SDS011;63013;51.104;-115.370;2023-05-10T03:34:42;101.60;;;57.70;;
74535;SDS011;63013;51.104;-115.370;2023-05-10T03:37:09;97.80;;;55.70;;
74535;SDS011;63013;51.104;-115.370;2023-05-10T03:39:36;99.00;;;56.60;;
74535;SDS011;63013;51.104;-115.370;2023-05-10T03:42:04;93.80;;;55.10;;
74535;SDS011;63013;51.104;-115.370;2023-05-10T03:44:31;88.70;;;53.20;;
74535;SDS011;63013;51.104;-115.370;2023-05-10T03:46:59;89.20;;;51.50;;
74535;SDS011;63013;51.104;-115.370;2023-05-10T03:49:26;88.90;;;50.90;;
74535;SDS011;63013;51.104;-115.370;2023-05-10T03:51:53;90.30;;;52.20;;
74535;SDS011;63013;51.104;-115.370;2023-05-10T03:54:20;93.50;;;52.10;;
74535;SDS011;63013;51.104;-115.370;2023-05-10T03:56:47;83.30;;;48.50;;
74535;SDS011;63013;51.104;-115.370;2023-05-10T03:59:14;76.60;;;44.10;;
74535;SDS011;63013;51.104;-115.370;2023-05-10T04:01:41;70.10;;;42.40;;
74535;SDS011;63013;51.104;-115.370;2023-05-10T04:04:08;72.90;;;42.60;;
74535;SDS011;63013;51.104;-115.370;2023-05-10T04:06:35;70.10;;;41.40;;
74535;SDS011;63013;51.104;-115.370;2023-05-10T04:09:01;70.50;;;42.50;;
74535;SDS011;63013;51.104;-115.370;2023-05-10T04:11:30;69.60;;;41.30;;
74535;SDS011;63013;51.104;-115.370;2023-05-10T04:13:57;70.80;;;41.50;;
74535;SDS011;63013;51.104;-115.370;2023-05-10T04:16:24;72.40;;;41.50;;
74535;SDS011;63013;51.104;-115.370;2023-05-10T04:18:51;67.70;;;39.40;;
74535;SDS011;63013;51.104;-115.370;2023-05-10T04:21:18;64.20;;;37.00;;
74535;SDS011;63013;51.104;-115.370;2023-05-10T04:23:45;64.60;;;38.20;;
74535;SDS011;63013;51.104;-115.370;2023-05-10T04:26:13;64.10;;;37.70;;
74535;SDS011;63013;51.104;-115.370;2023-05-10T04:28:40;60.00;;;36.00;;
74535;SDS011;63013;51.104;-115.370;2023-05-10T04:31:09;61.10;;;36.40;;
74535;SDS011;63013;51.104;-115.370;2023-05-10T04:33:36;61.00;;;35.30;;
74535;SDS011;63013;51.104;-115.370;2023-05-10T04:36:03;55.10;;;32.90;;
74535;SDS011;63013;51.104;-115.370;2023-05-10T04:38:31;56.00;;;33.30;;
74535;SDS011;63013;51.104;-115.370;2023-05-10T04:41:08;57.60;;;33.50;;
74535;SDS011;63013;51.104;-115.370;2023-05-10T04:43:36;53.60;;;32.40;;
74535;SDS011;63013;51.104;-115.370;2023-05-10T04:46:04;57.20;;;33.10;;
74535;SDS011;63013;51.104;-115.370;2023-05-10T04:48:33;51.70;;;31.40;;
74535;SDS011;63013;51.104;-115.370;2023-05-10T04:51:00;51.80;;;30.90;;
74535;SDS011;63013;51.104;-115.370;2023-05-10T04:53:27;50.40;;;31.90;;
74535;SDS011;63013;51.104;-115.370;2023-05-10T04:55:54;48.80;;;30.50;;
74535;SDS011;63013;51.104;-115.370;2023-05-10T04:58:21;48.60;;;29.90;;
74535;SDS011;63013;51.104;-115.370;2023-05-10T05:00:48;44.60;;;28.30;;
74535;SDS011;63013;51.104;-115.370;2023-05-10T05:03:24;48.10;;;28.90;;
74535;SDS011;63013;51.104;-115.370;2023-05-10T05:05:51;48.40;;;28.70;;
74535;SDS011;63013;51.104;-115.370;2023-05-10T05:08:18;51.10;;;30.30;;
74535;SDS011;63013;51.104;-115.370;2023-05-10T05:10:45;48.60;;;29.20;;
74535;SDS011;63013;51.104;-115.370;2023-05-10T05:13:13;45.70;;;28.20;;
74535;SDS011;63013;51.104;-115.370;2023-05-10T05:15:40;45.50;;;27.80;;
74535;SDS011;63013;51.104;-115.370;2023-05-10T05:18:07;44.50;;;28.00;;
74535;SDS011;63013;51.104;-115.370;2023-05-10T05:20:34;47.40;;;27.90;;
74535;SDS011;63013;51.104;-115.370;2023-05-10T05:23:01;41.60;;;26.10;;
74535;SDS011;63013;51.104;-115.370;2023-05-10T05:25:28;44.30;;;26.90;;
74535;SDS011;63013;51.104;-115.370;2023-05-10T05:27:55;43.90;;;27.70;;
74535;SDS011;63013;51.104;-115.370;2023-05-10T05:30:22;41.50;;;25.70;;
74535;SDS011;63013;51.104;-115.370;2023-05-10T05:32:48;43.00;;;25.00;;
74535;SDS011;63013;51.104;-115.370;2023-05-10T05:35:16;35.40;;;23.50;;
74535;SDS011;63013;51.104;-115.370;2023-05-10T05:37:42;39.20;;;23.50;;
74535;SDS011;63013;51.104;-115.370;2023-05-10T05:40:12;37.70;;;22.70;;
74535;SDS011;63013;51.104;-115.370;2023-05-10T05:42:40;37.60;;;22.40;;
74535;SDS011;63013;51.104;-115.370;2023-05-10T05:45:07;39.30;;;23.50;;
74535;SDS011;63013;51.104;-115.370;2023-05-10T05:47:34;37.10;;;21.40;;
74535;SDS011;63013;51.104;-115.370;2023-05-10T05:50:02;36.40;;;23.10;;
74535;SDS011;63013;51.104;-115.370;2023-05-10T05:52:30;35.50;;;21.80;;
74535;SDS011;63013;51.104;-115.370;2023-05-10T05:54:57;34.50;;;21.80;;
74535;SDS011;63013;51.104;-115.370;2023-05-10T05:57:24;36.20;;;21.00;;
74535;SDS011;63013;51.104;-115.370;2023-05-10T05:59:52;34.50;;;20.60;;
74535;SDS011;63013;51.104;-115.370;2023-05-10T06:02:19;31.80;;;20.00;;
74535;SDS011;63013;51.104;-115.370;2023-05-10T06:04:46;30.80;;;19.80;;
74535;SDS011;63013;51.104;-115.370;2023-05-10T06:07:13;34.30;;;19.60;;
74535;SDS011;63013;51.104;-115.370;2023-05-10T06:09:40;28.30;;;18.40;;
74535;SDS011;63013;51.104;-115.370;2023-05-10T06:12:07;31.80;;;19.60;;
74535;SDS011;63013;51.104;-115.370;2023-05-10T06:14:34;30.10;;;18.50;;
74535;SDS011;63013;51.104;-115.370;2023-05-10T06:17:01;29.80;;;18.40;;
74535;SDS011;63013;51.104;-115.370;2023-05-10T06:19:31;31.50;;;18.60;;
74535;SDS011;63013;51.104;-115.370;2023-05-10T06:21:58;28.60;;;17.60;;
74535;SDS011;63013;51.104;-115.370;2023-05-10T06:24:25;28.80;;;18.20;;
74535;SDS011;63013;51.104;-115.370;2023-05-10T06:26:52;27.90;;;18.30;;
74535;SDS011;63013;51.104;-115.370;2023-05-10T06:29:19;27.40;;;17.70;;
74535;SDS011;63013;51.104;-115.370;2023-05-10T06:31:46;28.50;;;17.80;;
74535;SDS011;63013;51.104;-115.370;2023-05-10T06:34:14;27.50;;;17.30;;
74535;SDS011;63013;51.104;-115.370;2023-05-10T06:36:40;30.50;;;16.90;;
74535;SDS011;63013;51.104;-115.370;2023-05-10T06:39:07;27.10;;;16.20;;
74535;SDS011;63013;51.104;-115.370;2023-05-10T06:41:34;25.50;;;16.10;;
74535;SDS011;63013;51.104;-115.370;2023-05-10T06:44:02;25.50;;;16.20;;
74535;SDS011;63013;51.104;-115.370;2023-05-10T06:46:29;25.40;;;16.50;;
74535;SDS011;63013;51.104;-115.370;2023-05-10T06:48:57;24.20;;;15.30;;
74535;SDS011;63013;51.104;-115.370;2023-05-10T06:51:24;25.50;;;15.50;;
74535;SDS011;63013;51.104;-115.370;2023-05-10T06:53:51;22.90;;;14.60;;
74535;SDS011;63013;51.104;-115.370;2023-05-10T06:56:18;23.90;;;15.40;;
74535;SDS011;63013;51.104;-115.370;2023-05-10T06:58:48;22.60;;;14.70;;
74535;SDS011;63013;51.104;-115.370;2023-05-10T07:01:14;22.80;;;14.20;;
74535;SDS011;63013;51.104;-115.370;2023-05-10T07:03:41;22.20;;;13.80;;
74535;SDS011;63013;51.104;-115.370;2023-05-10T07:06:08;22.10;;;14.20;;
74535;SDS011;63013;51.104;-115.370;2023-05-10T07:08:35;20.20;;;13.30;;
74535;SDS011;63013;51.104;-115.370;2023-05-10T07:11:03;22.90;;;13.80;;
74535;SDS011;63013;51.104;-115.370;2023-05-10T07:13:33;23.10;;;14.60;;
74535;SDS011;63013;51.104;-115.370;2023-05-10T07:16:00;22.80;;;14.40;;
74535;SDS011;63013;51.104;-115.370;2023-05-10T07:18:28;22.60;;;13.80;;
74535;SDS011;63013;51.104;-115.370;2023-05-10T07:20:55;21.30;;;13.40;;
74535;SDS011;63013;51.104;-115.370;2023-05-10T07:23:23;22.90;;;13.80;;
74535;SDS011;63013;51.104;-115.370;2023-05-10T07:25:51;20.30;;;12.40;;
74535;SDS011;63013;51.104;-115.370;2023-05-10T07:28:18;20.20;;;13.80;;
74535;SDS011;63013;51.104;-115.370;2023-05-10T07:30:46;20.70;;;13.00;;
74535;SDS011;63013;51.104;-115.370;2023-05-10T07:33:14;20.90;;;13.20;;
74535;SDS011;63013;51.104;-115.370;2023-05-10T07:35:42;21.20;;;13.20;;
74535;SDS011;63013;51.104;-115.370;2023-05-10T07:38:09;20.90;;;13.10;;
74535;SDS011;63013;51.104;-115.370;2023-05-10T07:40:37;20.90;;;12.90;;
74535;SDS011;63013;51.104;-115.370;2023-05-10T07:43:05;20.00;;;12.50;;
74535;SDS011;63013;51.104;-115.370;2023-05-10T07:45:33;19.80;;;12.20;;
74535;SDS011;63013;51.104;-115.370;2023-05-10T07:48:00;20.10;;;12.70;;
74535;SDS011;63013;51.104;-115.370;2023-05-10T07:50:28;19.60;;;12.50;;
74535;SDS011;63013;51.104;-115.370;2023-05-10T07:52:55;18.90;;;11.80;;
74535;SDS011;63013;51.104;-115.370;2023-05-10T07:55:22;17.30;;;10.90;;
74535;SDS011;63013;51.104;-115.370;2023-05-10T07:57:49;17.30;;;11.40;;
74535;SDS011;63013;51.104;-115.370;2023-05-10T08:00:19;17.20;;;10.80;;
74535;SDS011;63013;51.104;-115.370;2023-05-10T08:02:47;18.70;;;11.80;;
74535;SDS011;63013;51.104;-115.370;2023-05-10T08:05:14;16.30;;;10.90;;
74535;SDS011;63013;51.104;-115.370;2023-05-10T08:07:42;17.50;;;10.60;;
74535;SDS011;63013;51.104;-115.370;2023-05-10T08:10:09;15.30;;;9.90;;
74535;SDS011;63013;51.104;-115.370;2023-05-10T08:12:40;18.20;;;11.00;;
74535;SDS011;63013;51.104;-115.370;2023-05-10T08:15:08;17.00;;;10.90;;
74535;SDS011;63013;51.104;-115.370;2023-05-10T08:17:35;15.90;;;10.30;;
74535;SDS011;63013;51.104;-115.370;2023-05-10T08:20:03;15.80;;;10.30;;
74535;SDS011;63013;51.104;-115.370;2023-05-10T08:22:30;15.10;;;9.90;;
74535;SDS011;63013;51.104;-115.370;2023-05-10T08:24:57;16.20;;;10.30;;
74535;SDS011;63013;51.104;-115.370;2023-05-10T08:27:24;16.00;;;9.90;;
74535;SDS011;63013;51.104;-115.370;2023-05-10T08:29:52;15.30;;;9.30;;
74535;SDS011;63013;51.104;-115.370;2023-05-10T08:32:19;16.40;;;10.30;;
74535;SDS011;63013;51.104;-115.370;2023-05-10T08:34:46;16.20;;;10.00;;
74535;SDS011;63013;51.104;-115.370;2023-05-10T08:37:13;14.60;;;9.80;;
74535;SDS011;63013;51.104;-115.370;2023-05-10T08:39:40;14.80;;;9.70;;
74535;SDS011;63013;51.104;-115.370;2023-05-10T08:42:08;14.30;;;9.00;;
74535;SDS011;63013;51.104;-115.370;2023-05-10T08:44:36;15.50;;;9.40;;
74535;SDS011;63013;51.104;-115.370;2023-05-10T08:47:07;15.10;;;9.50;;
74535;SDS011;63013;51.104;-115.370;2023-05-10T08:49:35;14.80;;;9.00;;
74535;SDS011;63013;51.104;-115.370;2023-05-10T08:52:04;12.80;;;8.80;;
74535;SDS011;63013;51.104;-115.370;2023-05-10T08:54:33;15.00;;;9.30;;
74535;SDS011;63013;51.104;-115.370;2023-05-10T08:57:01;13.30;;;9.10;;
74535;SDS011;63013;51.104;-115.370;2023-05-10T08:59:29;14.50;;;9.20;;
74535;SDS011;63013;51.104;-115.370;2023-05-10T09:01:58;14.10;;;8.80;;
74535;SDS011;63013;51.104;-115.370;2023-05-10T09:04:25;12.10;;;8.10;;
74535;SDS011;63013;51.104;-115.370;2023-05-10T09:06:53;14.30;;;9.00;;
74535;SDS011;63013;51.104;-115.370;2023-05-10T09:09:21;13.30;;;8.70;;
74535;SDS011;63013;51.104;-115.370;2023-05-10T09:11:50;13.90;;;8.20;;
74535;SDS011;63013;51.104;-115.370;2023-05-10T09:14:18;12.60;;;8.40;;
74535;SDS011;63013;51.104;-115.370;2023-05-10T09:16:47;11.60;;;8.00;;
74535;SDS011;63013;51.104;-115.370;2023-05-10T09:19:14;12.10;;;8.10;;
74535;SDS011;63013;51.104;-115.370;2023-05-10T09:21:41;12.70;;;7.60;;
74535;SDS011;63013;51.104;-115.370;2023-05-10T09:24:08;11.90;;;7.40;;
74535;SDS011;63013;51.104;-115.370;2023-05-10T09:26:35;11.50;;;7.30;;
74535;SDS011;63013;51.104;-115.370;2023-05-10T09:29:15;10.00;;;6.90;;
74535;SDS011;63013;51.104;-115.370;2023-05-10T09:31:50;10.90;;;7.10;;
74535;SDS011;63013;51.104;-115.370;2023-05-10T09:34:29;10.10;;;6.30;;
74535;SDS011;63013;51.104;-115.370;2023-05-10T09:37:01;10.90;;;7.30;;
74535;SDS011;63013;51.104;-115.370;2023-05-10T09:39:36;10.80;;;6.90;;
74535;SDS011;63013;51.104;-115.370;2023-05-10T09:42:05;10.60;;;6.60;;
74535;SDS011;63013;51.104;-115.370;2023-05-10T09:44:36;10.10;;;6.30;;
74535;SDS011;63013;51.104;-115.370;2023-05-10T09:47:04;10.40;;;6.40;;
74535;SDS011;63013;51.104;-115.370;2023-05-10T09:49:31;9.60;;;6.30;;
74535;SDS011;63013;51.104;-115.370;2023-05-10T09:52:06;8.20;;;6.00;;
74535;SDS011;63013;51.104;-115.370;2023-05-10T09:54:34;11.50;;;5.80;;
74535;SDS011;63013;51.104;-115.370;2023-05-10T09:57:02;8.30;;;5.40;;
74535;SDS011;63013;51.104;-115.370;2023-05-10T09:59:32;10.30;;;5.80;;
74535;SDS011;63013;51.104;-115.370;2023-05-10T10:02:01;8.70;;;5.40;;
74535;SDS011;63013;51.104;-115.370;2023-05-10T10:04:28;8.70;;;5.90;;
74535;SDS011;63013;51.104;-115.370;2023-05-10T10:07:00;11.50;;;5.40;;
74535;SDS011;63013;51.104;-115.370;2023-05-10T10:09:29;7.40;;;4.90;;
74535;SDS011;63013;51.104;-115.370;2023-05-10T10:11:56;8.60;;;5.50;;
74535;SDS011;63013;51.104;-115.370;2023-05-10T10:14:23;10.20;;;5.50;;
74535;SDS011;63013;51.104;-115.370;2023-05-10T10:16:52;9.50;;;6.10;;
74535;SDS011;63013;51.104;-115.370;2023-05-10T10:19:20;8.10;;;5.10;;
74535;SDS011;63013;51.104;-115.370;2023-05-10T10:21:49;8.00;;;5.10;;
74535;SDS011;63013;51.104;-115.370;2023-05-10T10:24:16;8.60;;;5.20;;
74535;SDS011;63013;51.104;-115.370;2023-05-10T10:26:44;7.10;;;4.90;;
74535;SDS011;63013;51.104;-115.370;2023-05-10T10:35:09;8.30;;;5.00;;
74535;SDS011;63013;51.104;-115.370;2023-05-10T10:37:46;7.20;;;4.80;;
74535;SDS011;63013;51.104;-115.370;2023-05-10T10:40:30;6.90;;;4.70;;
74535;SDS011;63013;51.104;-115.370;2023-05-10T10:43:22;7.40;;;4.80;;
74535;SDS011;63013;51.104;-115.370;2023-05-10T10:46:17;6.50;;;4.70;;
74535;SDS011;63013;51.104;-115.370;2023-05-10T10:49:08;5.80;;;4.20;;
74535;SDS011;63013;51.104;-115.370;2023-05-10T10:51:39;6.50;;;4.40;;
74535;SDS011;63013;51.104;-115.370;2023-05-10T10:54:29;6.50;;;4.10;;
74535;SDS011;63013;51.104;-115.370;2023-05-10T10:57:13;6.90;;;4.50;;
74535;SDS011;63013;51.104;-115.370;2023-05-10T10:59:44;6.10;;;4.20;;
74535;SDS011;63013;51.104;-115.370;2023-05-10T11:02:34;6.20;;;4.20;;
74535;SDS011;63013;51.104;-115.370;2023-05-10T11:08:11;5.90;;;4.00;;
74535;SDS011;63013;51.104;-115.370;2023-05-10T11:10:50;6.50;;;3.80;;
74535;SDS011;63013;51.104;-115.370;2023-05-10T11:13:39;6.30;;;4.00;;
74535;SDS011;63013;51.104;-115.370;2023-05-10T11:16:24;5.90;;;4.20;;
74535;SDS011;63013;51.104;-115.370;2023-05-10T11:19:03;6.90;;;4.00;;
74535;SDS011;63013;51.104;-115.370;2023-05-10T11:21:34;6.90;;;3.90;;
74535;SDS011;63013;51.104;-115.370;2023-05-10T11:24:22;5.80;;;3.70;;
74535;SDS011;63013;51.104;-115.370;2023-05-10T11:26:54;5.20;;;3.40;;
74535;SDS011;63013;51.104;-115.370;2023-05-10T11:29:21;5.00;;;3.20;;
74535;SDS011;63013;51.104;-115.370;2023-05-10T11:31:49;5.60;;;3.40;;
74535;SDS011;63013;51.104;-115.370;2023-05-10T11:34:24;7.20;;;3.50;;
74535;SDS011;63013;51.104;-115.370;2023-05-10T11:36:54;5.40;;;3.20;;
74535;SDS011;63013;51.104;-115.370;2023-05-10T11:39:25;5.10;;;3.30;;
74535;SDS011;63013;51.104;-115.370;2023-05-10T11:41:58;4.90;;;3.20;;
74535;SDS011;63013;51.104;-115.370;2023-05-10T11:44:32;5.40;;;3.50;;
74535;SDS011;63013;51.104;-115.370;2023-05-10T11:47:02;5.60;;;3.50;;
74535;SDS011;63013;51.104;-115.370;2023-05-10T11:49:29;5.60;;;3.00;;
74535;SDS011;63013;51.104;-115.370;2023-05-10T11:52:07;4.50;;;3.10;;
74535;SDS011;63013;51.104;-115.370;2023-05-10T11:54:35;5.30;;;3.10;;
74535;SDS011;63013;51.104;-115.370;2023-05-10T11:57:02;4.80;;;2.80;;
74535;SDS011;63013;51.104;-115.370;2023-05-10T11:59:29;4.10;;;2.90;;
74535;SDS011;63013;51.104;-115.370;2023-05-10T12:01:56;4.30;;;2.70;;
74535;SDS011;63013;51.104;-115.370;2023-05-10T12:04:24;4.50;;;2.90;;
74535;SDS011;63013;51.104;-115.370;2023-05-10T12:06:52;4.40;;;3.10;;
74535;SDS011;63013;51.104;-115.370;2023-05-10T12:09:19;3.60;;;2.50;;
74535;SDS011;63013;51.104;-115.370;2023-05-10T12:11:46;4.30;;;2.50;;
74535;SDS011;63013;51.104;-115.370;2023-05-10T12:14:13;4.40;;;2.70;;
74535;SDS011;63013;51.104;-115.370;2023-05-10T12:16:43;4.60;;;3.00;;
74535;SDS011;63013;51.104;-115.370;2023-05-10T12:19:10;4.00;;;2.70;;
74535;SDS011;63013;51.104;-115.370;2023-05-10T12:21:37;3.90;;;2.40;;
74535;SDS011;63013;51.104;-115.370;2023-05-10T12:24:04;3.80;;;2.40;;
74535;SDS011;63013;51.104;-115.370;2023-05-10T12:26:31;4.10;;;2.40;;
74535;SDS011;63013;51.104;-115.370;2023-05-10T12:29:18;3.90;;;2.70;;
74535;SDS011;63013;51.104;-115.370;2023-05-10T12:31:56;3.30;;;2.20;;
74535;SDS011;63013;51.104;-115.370;2023-05-10T12:34:32;3.70;;;2.40;;
74535;SDS011;63013;51.104;-115.370;2023-05-10T12:37:01;3.90;;;2.60;;
74535;SDS011;63013;51.104;-115.370;2023-05-10T12:39:44;3.50;;;2.10;;
74535;SDS011;63013;51.104;-115.370;2023-05-10T12:42:11;2.70;;;1.90;;
74535;SDS011;63013;51.104;-115.370;2023-05-10T12:44:39;3.70;;;2.30;;
74535;SDS011;63013;51.104;-115.370;2023-05-10T12:47:06;3.00;;;2.00;;
74535;SDS011;63013;51.104;-115.370;2023-05-10T12:49:33;3.60;;;2.20;;
74535;SDS011;63013;51.104;-115.370;2023-05-10T12:52:01;3.20;;;2.10;;
74535;SDS011;63013;51.104;-115.370;2023-05-10T12:54:28;4.30;;;2.20;;
74535;SDS011;63013;51.104;-115.370;2023-05-10T12:56:55;3.10;;;2.00;;
74535;SDS011;63013;51.104;-115.370;2023-05-10T12:59:22;3.80;;;2.10;;
74535;SDS011;63013;51.104;-115.370;2023-05-10T13:01:49;4.40;;;2.00;;
74535;SDS011;63013;51.104;-115.370;2023-05-10T13:04:15;3.60;;;2.20;;
74535;SDS011;63013;51.104;-115.370;2023-05-10T13:06:42;3.70;;;2.10;;
74535;SDS011;63013;51.104;-115.370;2023-05-10T13:09:09;13.40;;;2.30;;
74535;SDS011;63013;51.104;-115.370;2023-05-10T13:11:36;3.20;;;1.90;;
74535;SDS011;63013;51.104;-115.370;2023-05-10T13:14:03;2.40;;;1.60;;
74535;SDS011;63013;51.104;-115.370;2023-05-10T13:16:31;3.40;;;1.80;;
74535;SDS011;63013;51.104;-115.370;2023-05-10T13:18:58;3.50;;;2.20;;
74535;SDS011;63013;51.104;-115.370;2023-05-10T13:21:25;3.50;;;2.00;;
74535;SDS011;63013;51.104;-115.370;2023-05-10T13:23:54;3.00;;;1.90;;
74535;SDS011;63013;51.104;-115.370;2023-05-10T13:26:21;2.80;;;2.20;;
74535;SDS011;63013;51.104;-115.370;2023-05-10T13:28:48;2.30;;;1.70;;
74535;SDS011;63013;51.104;-115.370;2023-05-10T13:31:17;3.40;;;2.00;;
74535;SDS011;63013;51.104;-115.370;2023-05-10T13:33:44;2.20;;;1.50;;
74535;SDS011;63013;51.104;-115.370;2023-05-10T13:36:11;2.30;;;1.50;;
74535;SDS011;63013;51.104;-115.370;2023-05-10T13:38:38;2.20;;;1.70;;
74535;SDS011;63013;51.104;-115.370;2023-05-10T13:41:05;2.90;;;1.50;;
74535;SDS011;63013;51.104;-115.370;2023-05-10T13:43:32;2.20;;;1.60;;
74535;SDS011;63013;51.104;-115.370;2023-05-10T13:45:59;2.20;;;1.30;;
74535;SDS011;63013;51.104;-115.370;2023-05-10T13:48:27;2.80;;;1.70;;
74535;SDS011;63013;51.104;-115.370;2023-05-10T13:50:54;2.30;;;1.50;;
74535;SDS011;63013;51.104;-115.370;2023-05-10T13:53:20;1.80;;;1.40;;
74535;SDS011;63013;51.104;-115.370;2023-05-10T13:55:48;2.30;;;1.50;;
74535;SDS011;63013;51.104;-115.370;2023-05-10T13:58:15;2.50;;;1.50;;
74535;SDS011;63013;51.104;-115.370;2023-05-10T14:00:42;2.30;;;1.60;;
74535;SDS011;63013;51.104;-115.370;2023-05-10T14:03:09;2.60;;;1.60;;
74535;SDS011;63013;51.104;-115.370;2023-05-10T14:05:36;2.20;;;1.70;;
74535;SDS011;63013;51.104;-115.370;2023-05-10T14:08:03;1.60;;;1.10;;
74535;SDS011;63013;51.104;-115.370;2023-05-10T14:10:31;3.50;;;1.50;;
74535;SDS011;63013;51.104;-115.370;2023-05-10T14:12:57;1.90;;;1.40;;
74535;SDS011;63013;51.104;-115.370;2023-05-10T14:15:25;2.70;;;1.40;;
74535;SDS011;63013;51.104;-115.370;2023-05-10T14:17:51;1.80;;;1.30;;
74535;SDS011;63013;51.104;-115.370;2023-05-10T14:20:19;2.00;;;1.10;;
74535;SDS011;63013;51.104;-115.370;2023-05-10T14:22:45;1.90;;;1.20;;
74535;SDS011;63013;51.104;-115.370;2023-05-10T14:25:13;1.90;;;1.30;;
74535;SDS011;63013;51.104;-115.370;2023-05-10T14:27:40;2.50;;;1.20;;